createdAt,value
2017-12-28T17:42:53.555Z,4.40
2017-12-28T17:45:21.046Z,4.50
2017-12-28T17:47:48.564Z,4.50
2017-12-28T17:50:16.079Z,4.60
2017-12-28T17:52:43.584Z,4.70
2017-12-28T17:55:11.081Z,4.70
2017-12-28T17:57:38.600Z,4.60
2017-12-28T18:00:06.119Z,4.50
2017-12-28T18:02:33.633Z,4.50
2017-12-28T18:05:01.929Z,4.60
2017-12-28T18:07:30.198Z,4.70
2017-12-28T18:09:58.496Z,4.70
2017-12-28T18:12:26.001Z,4.70
2017-12-28T18:14:53.520Z,4.70
2017-12-28T18:17:21.081Z,4.70
2017-12-28T18:19:48.603Z,4.80
2017-12-28T18:22:16.101Z,4.90
2017-12-28T18:24:43.597Z,4.90
2017-12-28T18:27:11.116Z,4.90
2017-12-28T18:29:38.651Z,4.80
2017-12-28T18:32:06.185Z,4.70
2017-12-28T18:34:33.778Z,4.70
2017-12-28T18:37:01.306Z,4.70
2017-12-28T18:39:28.808Z,4.70
2017-12-28T18:41:56.314Z,4.70
2017-12-28T18:44:23.845Z,4.60
2017-12-28T18:46:51.686Z,4.60
2017-12-28T18:49:19.215Z,4.60
2017-12-28T18:51:46.715Z,4.60
2017-12-28T18:54:14.254Z,4.60
2017-12-28T18:56:41.780Z,4.60
2017-12-28T18:59:09.366Z,4.50
2017-12-28T19:01:36.870Z,4.60
2017-12-28T19:04:04.407Z,4.60
2017-12-28T19:06:31.968Z,4.50
2017-12-28T19:08:59.484Z,4.40
2017-12-28T19:11:26.996Z,4.50
2017-12-28T19:13:54.550Z,4.30
2017-12-28T19:16:24.541Z,4.30
2017-12-28T19:18:55.360Z,4.30
2017-12-28T19:21:25.505Z,4.40
2017-12-28T19:23:54.215Z,4.40
2017-12-28T19:26:24.618Z,4.40
2017-12-28T19:28:56.252Z,4.30
2017-12-28T19:31:25.065Z,4.30
2017-12-28T19:33:54.663Z,4.20
2017-12-28T19:36:24.673Z,4.20
2017-12-28T19:38:53.394Z,4.20
2017-12-28T19:41:23.264Z,4.20
2017-12-28T19:43:53.636Z,4.30
2017-12-28T19:46:22.319Z,4.20
2017-12-28T19:48:49.894Z,4.20
2017-12-28T19:51:20.724Z,4.20
2017-12-28T19:53:48.722Z,4.30
2017-12-28T19:56:17.497Z,4.20
2017-12-28T19:58:46.207Z,4.30
2017-12-28T20:01:13.738Z,4.30
2017-12-28T20:03:41.674Z,4.30
2017-12-28T20:06:09.942Z,4.40
2017-12-28T20:08:37.424Z,4.30
2017-12-28T20:11:05.716Z,4.40
2017-12-28T20:13:33.214Z,4.40
2017-12-28T20:16:00.744Z,4.50
2017-12-28T20:18:28.361Z,4.50
2017-12-28T20:20:56.640Z,4.50
2017-12-28T20:23:24.121Z,4.40
2017-12-28T20:25:51.636Z,4.50
2017-12-28T20:28:19.135Z,4.50
2017-12-28T20:30:46.651Z,4.50
2017-12-28T20:33:14.156Z,4.50
2017-12-28T20:35:41.642Z,4.50
2017-12-28T20:38:09.163Z,4.50
2017-12-28T20:40:37.460Z,4.50
2017-12-28T20:43:04.963Z,4.50
2017-12-28T20:45:32.462Z,4.60
2017-12-28T20:48:00.073Z,4.60
2017-12-28T20:50:27.620Z,4.50
2017-12-28T20:52:55.132Z,4.50
2017-12-28T20:55:23.411Z,4.40
2017-12-28T20:57:51.671Z,4.40
2017-12-28T21:00:19.225Z,4.40
2017-12-28T21:02:46.703Z,4.40
2017-12-28T21:05:14.225Z,4.40
2017-12-28T21:07:41.775Z,4.30
2017-12-28T21:10:09.313Z,4.20
2017-12-28T21:12:36.826Z,4.30
2017-12-28T21:15:05.116Z,4.40
2017-12-28T21:17:33.388Z,4.50
2017-12-28T21:20:00.902Z,4.50
2017-12-28T21:22:28.427Z,4.50
2017-12-28T21:24:55.975Z,4.40
2017-12-28T21:27:24.272Z,4.30
2017-12-28T21:29:51.802Z,4.30
2017-12-28T21:32:19.404Z,4.50
2017-12-28T21:34:46.936Z,4.50
2017-12-28T21:37:14.460Z,4.40
2017-12-28T21:39:42.004Z,4.40
2017-12-28T21:42:09.590Z,4.30
2017-12-28T21:44:37.900Z,4.30
2017-12-28T21:47:06.186Z,4.30
2017-12-28T21:49:33.753Z,4.30
2017-12-28T21:52:01.450Z,4.30
2017-12-28T21:54:28.978Z,4.20
2017-12-28T21:56:56.481Z,4.20
2017-12-28T21:59:24.798Z,4.20
2017-12-28T22:01:52.332Z,4.30
2017-12-28T22:04:19.886Z,4.40
2017-12-28T22:06:47.443Z,4.40
2017-12-28T22:09:14.938Z,4.50
2017-12-28T22:11:43.202Z,4.30
2017-12-28T22:14:11.536Z,4.30
2017-12-28T22:16:39.077Z,4.30
2017-12-28T22:19:06.923Z,4.40
2017-12-28T22:21:34.421Z,4.40
2017-12-28T22:24:02.631Z,4.50
2017-12-28T22:26:30.183Z,4.50
2017-12-28T22:28:57.737Z,4.50
2017-12-28T22:31:25.353Z,4.50
2017-12-28T22:33:52.886Z,4.40
2017-12-28T22:36:21.342Z,4.50
2017-12-28T22:38:48.969Z,4.50
2017-12-28T22:41:16.569Z,4.50
2017-12-28T22:43:44.135Z,4.50
2017-12-28T22:46:13.041Z,4.50
2017-12-28T22:48:40.604Z,4.40
2017-12-28T22:51:08.896Z,4.40
2017-12-28T22:53:36.531Z,4.50
2017-12-28T22:56:04.690Z,4.40
2017-12-28T22:58:32.194Z,4.50
2017-12-28T23:00:59.861Z,4.30
2017-12-28T23:03:27.480Z,4.40
2017-12-28T23:05:55.036Z,4.40
2017-12-28T23:08:23.440Z,4.50
2017-12-28T23:10:51.878Z,4.50
2017-12-28T23:13:19.384Z,4.40
2017-12-28T23:15:47.722Z,4.40
2017-12-28T23:18:15.316Z,4.40
2017-12-28T23:20:44.889Z,4.40
2017-12-28T23:23:12.417Z,4.50
2017-12-28T23:25:39.926Z,4.30
2017-12-28T23:28:08.688Z,4.40
2017-12-28T23:30:36.194Z,4.50
2017-12-28T23:33:04.465Z,4.60
2017-12-28T23:35:32.886Z,4.50
2017-12-28T23:38:00.397Z,4.50
2017-12-28T23:40:27.903Z,4.40
2017-12-28T23:42:55.395Z,4.40
2017-12-28T23:45:22.887Z,4.50
2017-12-28T23:47:50.402Z,4.50
2017-12-28T23:50:18.001Z,4.50
2017-12-28T23:52:45.506Z,4.40
2017-12-28T23:55:13.000Z,4.40
2017-12-28T23:57:40.555Z,4.50
